createdAt,value
2019-02-21T00:01:09.432Z,9.60
2019-02-21T00:03:39.798Z,9.60
2019-02-21T00:06:10.182Z,9.60
2019-02-21T00:08:40.653Z,9.60
2019-02-21T00:11:11.862Z,9.50
2019-02-21T00:13:42.260Z,9.50
2019-02-21T00:16:13.172Z,9.50
2019-02-21T00:18:44.564Z,9.50
2019-02-21T00:21:15.354Z,9.40
2019-02-21T00:23:45.718Z,9.30
2019-02-21T00:26:16.174Z,9.30
2019-02-21T00:28:46.607Z,9.30
2019-02-21T00:31:16.994Z,9.40
2019-02-21T00:33:47.342Z,9.30
2019-02-21T00:36:17.759Z,9.40
2019-02-21T00:38:48.820Z,9.10
2019-02-21T00:41:19.403Z,9.20
2019-02-21T00:43:49.778Z,9.20
2019-02-21T00:46:21.934Z,9.40
2019-02-21T00:48:52.303Z,9.40
2019-02-21T00:51:22.643Z,9.40
2019-02-21T00:53:52.914Z,9.30
2019-02-21T00:56:23.280Z,9.30
2019-02-21T00:58:53.680Z,9.30
2019-02-21T01:01:24.309Z,9.40
2019-02-21T01:03:54.721Z,9.30
2019-02-21T01:06:25.078Z,9.40
2019-02-21T01:08:55.454Z,9.40
2019-02-21T01:11:25.861Z,9.40
2019-02-21T01:13:56.284Z,9.40
2019-02-21T01:16:26.724Z,9.50
2019-02-21T01:18:57.331Z,9.40
2019-02-21T01:21:27.749Z,9.50
2019-02-21T01:23:58.115Z,9.50
2019-02-21T01:26:28.587Z,9.40
2019-02-21T01:28:58.913Z,9.50
2019-02-21T01:31:29.421Z,9.50
2019-02-21T01:33:59.813Z,9.40
2019-02-21T01:36:30.220Z,9.40
2019-02-21T01:39:00.602Z,9.40
2019-02-21T01:41:31.077Z,9.50
2019-02-21T01:44:01.697Z,9.50
2019-02-21T01:46:35.547Z,9.50
2019-02-21T01:49:05.933Z,9.50
2019-02-21T01:51:36.425Z,9.50
2019-02-21T01:54:06.922Z,9.50
2019-02-21T01:56:37.503Z,9.50
2019-02-21T01:59:08.916Z,9.50
2019-02-21T02:01:39.290Z,9.50
2019-02-21T02:04:10.940Z,9.50
2019-02-21T02:06:41.387Z,9.50
2019-02-21T02:09:13.673Z,9.40
2019-02-21T02:11:43.995Z,9.50
2019-02-21T02:14:14.383Z,9.50
2019-02-21T02:16:45.007Z,9.40
2019-02-21T02:19:15.358Z,9.40
2019-02-21T02:21:45.753Z,9.50
2019-02-21T02:24:19.281Z,9.60
2019-02-21T02:26:52.417Z,9.50
2019-02-21T02:29:23.019Z,9.60
2019-02-21T02:31:53.484Z,9.70
2019-02-21T02:34:23.907Z,9.60
2019-02-21T02:36:54.305Z,9.70
2019-02-21T02:39:24.712Z,9.70
2019-02-21T02:41:55.472Z,9.70
2019-02-21T02:44:25.903Z,9.70
2019-02-21T02:46:56.318Z,9.70
2019-02-21T02:49:26.757Z,9.60
2019-02-21T02:51:57.360Z,9.60
2019-02-21T02:54:27.713Z,9.60
2019-02-21T02:56:58.233Z,9.60
2019-02-21T02:59:40.084Z,9.60
2019-02-21T03:02:00.821Z,9.50
2019-02-21T03:04:31.204Z,9.60
2019-02-21T03:07:01.519Z,9.50
2019-02-21T03:09:31.929Z,9.50
2019-02-21T03:12:02.449Z,9.50
2019-02-21T03:14:32.830Z,9.60
2019-02-21T03:17:03.646Z,9.60
2019-02-21T03:19:34.055Z,9.60
2019-02-21T03:22:04.472Z,9.60
2019-02-21T03:24:34.846Z,9.60
2019-02-21T03:27:05.215Z,9.50
2019-02-21T03:29:35.655Z,9.60
2019-02-21T03:32:05.985Z,9.60
2019-02-21T03:34:36.364Z,9.50
2019-02-21T03:37:06.758Z,9.50
2019-02-21T03:39:37.160Z,9.50
2019-02-21T03:42:07.781Z,9.50
2019-02-21T03:44:38.256Z,9.50
2019-02-21T03:47:30.157Z,9.50
2019-02-21T03:50:00.635Z,9.50
2019-02-21T03:52:31.086Z,9.50
2019-02-21T03:55:01.592Z,9.50
2019-02-21T03:57:32.178Z,9.50
2019-02-21T04:00:02.783Z,9.50
2019-02-21T04:02:33.299Z,9.50
2019-02-21T04:05:03.709Z,9.50
2019-02-21T04:07:34.370Z,9.50
2019-02-21T04:10:04.875Z,9.60
2019-02-21T04:12:35.241Z,9.60
2019-02-21T04:15:06.841Z,9.60
2019-02-21T04:17:37.562Z,9.60
2019-02-21T04:20:08.440Z,9.60
2019-02-21T04:22:38.925Z,9.60
2019-02-21T04:25:09.639Z,9.60
2019-02-21T04:27:40.026Z,9.50
2019-02-21T04:30:10.447Z,9.60
2019-02-21T04:32:40.865Z,9.60
2019-02-21T04:35:11.603Z,9.60
2019-02-21T04:37:42.024Z,9.50
2019-02-21T04:40:14.303Z,9.50
2019-02-21T04:42:44.704Z,9.60
2019-02-21T04:45:15.112Z,9.60
2019-02-21T04:47:45.738Z,9.60
2019-02-21T04:50:16.122Z,9.60
2019-02-21T04:52:46.999Z,9.60
2019-02-21T04:55:17.566Z,9.60
2019-02-21T04:57:48.440Z,9.60
2019-02-21T05:00:18.885Z,9.50
2019-02-21T05:02:49.283Z,9.60
2019-02-21T05:05:19.840Z,9.60
2019-02-21T05:07:50.202Z,9.60
2019-02-21T05:10:20.641Z,9.60
2019-02-21T05:12:51.204Z,9.60
2019-02-21T05:15:21.686Z,9.60
2019-02-21T05:17:52.355Z,9.60
2019-02-21T05:20:22.861Z,9.70
2019-02-21T05:22:53.369Z,9.60
2019-02-21T05:25:23.951Z,9.70
2019-02-21T05:28:11.950Z,9.60
2019-02-21T05:30:42.682Z,9.70
2019-02-21T05:33:31.128Z,9.70
2019-02-21T05:36:26.209Z,9.70
2019-02-21T05:39:21.617Z,9.70
2019-02-21T05:42:11.265Z,9.70
2019-02-21T05:45:00.808Z,9.70
2019-02-21T05:47:54.261Z,9.80
2019-02-21T05:50:33.314Z,9.70
2019-02-21T05:53:08.848Z,9.80
2019-02-21T05:56:13.653Z,9.80
2019-02-21T05:59:01.402Z,9.80
2019-02-21T06:02:09.079Z,9.80
2019-02-21T06:05:03.954Z,9.70
2019-02-21T06:07:51.574Z,9.80
2019-02-21T06:10:49.877Z,9.80
2019-02-21T06:13:37.904Z,9.90
2019-02-21T06:16:25.590Z,9.90
2019-02-21T06:19:32.876Z,9.90
2019-02-21T06:22:30.920Z,9.80
2019-02-21T06:25:09.114Z,9.90
2019-02-21T06:27:53.786Z,9.90
2019-02-21T06:30:29.749Z,9.90
2019-02-21T06:33:04.974Z,9.80
2019-02-21T06:35:32.866Z,9.80
2019-02-21T06:38:03.405Z,9.80
2019-02-21T06:40:36.432Z,9.90
2019-02-21T06:43:06.736Z,9.70
2019-02-21T06:45:37.576Z,9.70
2019-02-21T06:48:08.088Z,9.70
2019-02-21T06:50:38.946Z,9.70
2019-02-21T06:53:10.088Z,9.70
2019-02-21T06:55:41.034Z,9.80
2019-02-21T06:58:11.941Z,9.80
2019-02-21T07:00:43.095Z,9.80
2019-02-21T07:03:16.087Z,9.80
2019-02-21T07:05:46.672Z,9.80
2019-02-21T07:08:18.100Z,9.70
2019-02-21T07:10:49.635Z,9.70
2019-02-21T07:13:26.450Z,9.60
2019-02-21T07:15:54.745Z,9.60
2019-02-21T07:18:28.656Z,9.70
2019-02-21T07:21:01.944Z,9.70
2019-02-21T07:23:43.171Z,9.70
2019-02-21T07:26:10.604Z,9.70
2019-02-21T07:28:41.989Z,9.80
2019-02-21T07:31:13.060Z,9.70
2019-02-21T07:33:44.286Z,9.70
2019-02-21T07:36:15.733Z,9.70
2019-02-21T07:38:46.481Z,9.70
2019-02-21T07:41:18.633Z,9.60
2019-02-21T07:43:50.274Z,9.80
2019-02-21T07:46:21.502Z,9.70
2019-02-21T07:48:52.467Z,9.80
2019-02-21T07:51:23.612Z,9.80
2019-02-21T07:53:54.199Z,9.90
2019-02-21T07:56:25.414Z,9.90
2019-02-21T07:58:57.691Z,9.90
2019-02-21T08:01:29.249Z,9.90
2019-02-21T08:04:01.718Z,9.80
2019-02-21T08:06:32.963Z,9.90
2019-02-21T08:09:05.409Z,9.90
2019-02-21T08:11:36.399Z,10.00
2019-02-21T08:14:07.507Z,10.00
2019-02-21T08:16:38.904Z,10.00
2019-02-21T08:19:09.969Z,10.10
2019-02-21T08:21:43.356Z,10.10
2019-02-21T08:24:12.998Z,10.00
2019-02-21T08:26:43.845Z,10.10
2019-02-21T08:29:14.819Z,10.20
2019-02-21T08:31:45.869Z,10.20
2019-02-21T08:34:27.477Z,10.30
2019-02-21T08:36:58.063Z,10.30
2019-02-21T08:39:28.750Z,10.20
2019-02-21T08:42:02.559Z,10.20
2019-02-21T08:44:33.597Z,10.20
2019-02-21T08:47:04.577Z,10.20
2019-02-21T08:49:35.547Z,10.20
2019-02-21T08:52:06.740Z,10.30
2019-02-21T08:54:37.694Z,10.30
2019-02-21T08:57:09.705Z,10.40
2019-02-21T08:59:42.340Z,10.40
2019-02-21T09:02:13.193Z,10.60
2019-02-21T09:04:46.289Z,10.70
2019-02-21T09:07:17.113Z,10.70
2019-02-21T09:09:48.279Z,10.70
2019-02-21T09:12:18.907Z,10.80
2019-02-21T09:14:49.643Z,10.80
2019-02-21T09:17:21.397Z,10.80
2019-02-21T09:19:52.451Z,10.90
2019-02-21T09:22:23.431Z,11.00
2019-02-21T09:24:54.137Z,11.00
2019-02-21T09:27:24.926Z,11.10
2019-02-21T09:29:55.991Z,11.10
2019-02-21T09:32:26.513Z,11.20
2019-02-21T09:35:03.963Z,11.30
2019-02-21T09:37:35.103Z,11.10
2019-02-21T09:40:06.324Z,11.20
2019-02-21T09:42:37.361Z,11.40
2019-02-21T09:45:11.519Z,11.40
2019-02-21T09:47:44.382Z,11.60
2019-02-21T09:50:15.548Z,11.70
2019-02-21T09:52:46.307Z,11.80
2019-02-21T09:55:17.899Z,11.70
2019-02-21T09:57:48.672Z,11.80
2019-02-21T10:00:20.388Z,11.90
2019-02-21T10:02:54.301Z,11.90
2019-02-21T10:05:23.079Z,12.00
2019-02-21T10:07:55.400Z,12.00
2019-02-21T10:10:26.193Z,12.10
2019-02-21T10:12:59.967Z,12.30
2019-02-21T10:15:31.484Z,12.40
2019-02-21T10:18:02.035Z,12.50
2019-02-21T10:20:32.775Z,12.50
2019-02-21T10:23:03.819Z,12.80
2019-02-21T10:25:34.693Z,12.80
2019-02-21T10:28:05.405Z,12.80
2019-02-21T10:30:36.776Z,12.80
2019-02-21T10:33:07.574Z,12.80
2019-02-21T10:35:38.240Z,13.00
2019-02-21T10:38:09.209Z,12.90
2019-02-21T10:40:39.797Z,13.00
2019-02-21T10:43:10.472Z,13.00
2019-02-21T10:45:47.967Z,13.00
2019-02-21T10:48:14.367Z,13.00
2019-02-21T10:50:45.029Z,13.10
2019-02-21T10:53:15.588Z,13.00
2019-02-21T10:55:48.583Z,12.80
2019-02-21T10:58:19.395Z,12.90
2019-02-21T11:00:50.047Z,12.80
2019-02-21T11:03:20.662Z,12.60
2019-02-21T11:05:51.470Z,12.60
2019-02-21T11:08:22.121Z,12.70
2019-02-21T11:10:53.280Z,12.70
2019-02-21T11:13:24.297Z,12.60
2019-02-21T11:15:55.046Z,12.60
2019-02-21T11:18:26.516Z,12.60
2019-02-21T11:20:59.279Z,12.80
2019-02-21T11:23:30.263Z,12.60
2019-02-21T11:26:01.163Z,12.50
2019-02-21T11:28:31.967Z,12.60
2019-02-21T11:31:03.318Z,12.80
2019-02-21T11:33:33.789Z,12.80
2019-02-21T11:36:04.506Z,12.90
2019-02-21T11:38:35.176Z,12.90
2019-02-21T11:41:06.273Z,12.70
2019-02-21T11:43:38.354Z,12.80
2019-02-21T11:46:09.395Z,12.80
2019-02-21T11:48:40.643Z,12.80
2019-02-21T11:51:11.360Z,12.80
2019-02-21T11:53:42.206Z,12.60
2019-02-21T11:56:15.601Z,12.70
2019-02-21T11:58:47.200Z,12.60
2019-02-21T12:01:18.041Z,12.60
2019-02-21T12:03:48.890Z,12.60
2019-02-21T12:06:19.960Z,12.70
2019-02-21T12:08:50.698Z,12.70
2019-02-21T12:11:21.600Z,12.70
2019-02-21T12:13:52.350Z,12.90
2019-02-21T12:16:22.906Z,12.80
2019-02-21T12:18:54.031Z,12.80
2019-02-21T12:21:24.847Z,12.90
2019-02-21T12:23:57.924Z,12.80
2019-02-21T12:26:28.531Z,13.00
2019-02-21T12:28:59.342Z,12.80
2019-02-21T12:31:30.162Z,12.70
2019-02-21T12:34:01.081Z,12.70
2019-02-21T12:36:32.024Z,12.80
2019-02-21T12:39:04.271Z,13.00
2019-02-21T12:41:34.972Z,13.00
2019-02-21T12:44:05.616Z,12.90
2019-02-21T12:46:36.645Z,13.00
2019-02-21T12:49:07.485Z,13.10
2019-02-21T12:51:38.140Z,13.20
2019-02-21T12:54:08.900Z,13.20
2019-02-21T12:56:39.778Z,13.20
2019-02-21T12:59:10.506Z,13.10
2019-02-21T13:01:41.496Z,13.10
2019-02-21T13:04:12.264Z,13.20
2019-02-21T13:06:44.766Z,13.30
2019-02-21T13:09:15.410Z,13.40
2019-02-21T13:11:46.328Z,13.50
2019-02-21T13:14:16.976Z,13.60
2019-02-21T13:16:50.876Z,13.50
2019-02-21T13:19:21.526Z,13.50
2019-02-21T13:21:52.168Z,13.40
2019-02-21T13:24:22.749Z,13.40
2019-02-21T13:26:53.508Z,13.20
2019-02-21T13:29:24.174Z,13.20
2019-02-21T13:31:58.303Z,13.30
2019-02-21T13:34:28.989Z,13.20
2019-02-21T13:36:59.473Z,13.40
2019-02-21T13:39:33.981Z,13.20
2019-02-21T13:42:07.008Z,13.00
2019-02-21T13:44:37.706Z,13.00
2019-02-21T13:47:08.136Z,13.00
2019-02-21T13:49:39.096Z,13.10
2019-02-21T13:52:09.761Z,13.20
2019-02-21T13:54:40.158Z,13.20
2019-02-21T13:57:10.926Z,13.20
2019-02-21T13:59:44.662Z,13.10
2019-02-21T14:02:15.506Z,13.00
2019-02-21T14:04:45.909Z,13.10
2019-02-21T14:07:16.802Z,13.00
2019-02-21T14:09:47.831Z,13.10
2019-02-21T14:12:18.385Z,13.20
2019-02-21T14:14:50.999Z,13.20
2019-02-21T14:17:22.135Z,13.00
2019-02-21T14:19:53.238Z,13.10
2019-02-21T14:22:24.360Z,13.10
2019-02-21T14:24:54.925Z,13.20
2019-02-21T14:27:25.617Z,13.10
2019-02-21T14:29:56.687Z,13.20
2019-02-21T14:32:27.385Z,13.20
2019-02-21T14:34:58.029Z,13.20
2019-02-21T14:37:28.905Z,13.10
2019-02-21T14:39:59.677Z,13.10
2019-02-21T14:42:31.577Z,13.20
2019-02-21T14:45:02.060Z,13.20
2019-02-21T14:47:32.687Z,13.20
2019-02-21T14:50:04.687Z,13.20
2019-02-21T14:52:36.137Z,13.30
2019-02-21T14:55:10.237Z,13.30
2019-02-21T14:57:41.405Z,13.30
2019-02-21T15:00:15.573Z,13.40
2019-02-21T15:02:46.268Z,13.40
2019-02-21T15:05:16.970Z,13.30
2019-02-21T15:07:48.937Z,13.40
2019-02-21T15:10:19.623Z,13.30
2019-02-21T15:12:50.291Z,13.40
2019-02-21T15:15:22.093Z,13.20
2019-02-21T15:18:07.012Z,12.90
2019-02-21T15:20:36.790Z,12.90
2019-02-21T15:23:03.726Z,12.80
2019-02-21T15:25:34.524Z,12.70
2019-02-21T15:28:05.247Z,12.70
2019-02-21T15:30:35.851Z,12.90
2019-02-21T15:33:06.899Z,12.70
2019-02-21T15:35:37.637Z,12.60
2019-02-21T15:38:19.050Z,12.60
2019-02-21T15:40:43.326Z,12.60
2019-02-21T15:43:13.166Z,12.70
2019-02-21T15:45:43.964Z,12.70
2019-02-21T15:48:14.697Z,12.70
2019-02-21T15:50:45.610Z,12.60
2019-02-21T15:53:18.631Z,12.50
2019-02-21T15:55:49.730Z,12.30
2019-02-21T15:58:20.541Z,12.30
2019-02-21T16:00:52.599Z,12.20
2019-02-21T16:03:23.857Z,12.00
2019-02-21T16:05:56.779Z,11.90
2019-02-21T16:08:27.718Z,12.00
2019-02-21T16:10:58.684Z,11.90
2019-02-21T16:13:29.657Z,12.10
2019-02-21T16:16:02.554Z,12.00
2019-02-21T16:18:33.154Z,12.10
2019-02-21T16:21:06.408Z,12.10
2019-02-21T16:23:37.447Z,12.10
2019-02-21T16:26:08.065Z,11.90
2019-02-21T16:28:38.897Z,12.00
2019-02-21T16:31:10.023Z,12.00
2019-02-21T16:33:40.553Z,12.10
2019-02-21T16:36:11.056Z,12.10
2019-02-21T16:38:41.885Z,11.90
2019-02-21T16:41:12.878Z,11.70
2019-02-21T16:43:43.199Z,11.70
2019-02-21T16:46:13.656Z,11.70
2019-02-21T16:48:43.988Z,11.60
2019-02-21T16:51:14.517Z,11.50
2019-02-21T16:53:45.115Z,11.70
2019-02-21T16:56:15.363Z,11.60
2019-02-21T16:58:45.863Z,11.50
2019-02-21T17:01:16.128Z,11.60
2019-02-21T17:03:46.437Z,11.50
2019-02-21T17:06:17.830Z,11.70
2019-02-21T17:08:48.071Z,11.60
2019-02-21T17:11:18.621Z,11.70
2019-02-21T17:13:55.579Z,11.80
2019-02-21T17:16:21.163Z,11.70
2019-02-21T17:18:51.888Z,11.70
2019-02-21T17:21:22.657Z,11.70
2019-02-21T17:23:53.338Z,11.80
2019-02-21T17:26:23.717Z,11.90
2019-02-21T17:28:54.065Z,11.90
2019-02-21T17:31:24.364Z,11.80
2019-02-21T17:33:54.755Z,11.90
2019-02-21T17:36:35.205Z,11.90
2019-02-21T17:39:06.661Z,12.00
2019-02-21T17:41:37.057Z,12.00
2019-02-21T17:44:07.581Z,12.00
2019-02-21T17:46:37.959Z,11.90
2019-02-21T17:49:10.682Z,12.20
2019-02-21T17:51:41.117Z,12.20
2019-02-21T17:54:11.685Z,12.20
2019-02-21T17:56:44.569Z,12.30
2019-02-21T17:59:15.096Z,12.40
2019-02-21T18:01:45.601Z,12.30
2019-02-21T18:04:16.055Z,12.30
2019-02-21T18:06:46.475Z,12.50
2019-02-21T18:09:16.959Z,12.50
2019-02-21T18:11:47.361Z,12.50
2019-02-21T18:14:18.131Z,12.30
2019-02-21T18:16:52.597Z,12.40
2019-02-21T18:19:23.359Z,12.30
2019-02-21T18:21:53.869Z,12.20
2019-02-21T18:24:24.239Z,12.30
2019-02-21T18:26:55.006Z,12.30
2019-02-21T18:29:25.599Z,12.20
2019-02-21T18:31:56.353Z,12.30
2019-02-21T18:34:26.799Z,12.20
2019-02-21T18:36:57.285Z,12.10
2019-02-21T18:39:30.782Z,12.10
2019-02-21T18:42:01.202Z,12.10
2019-02-21T18:44:34.750Z,12.20
2019-02-21T18:47:08.418Z,12.20
2019-02-21T18:49:38.912Z,12.40
2019-02-21T18:52:09.309Z,12.20
2019-02-21T18:54:39.760Z,12.30
2019-02-21T18:57:12.260Z,12.30
2019-02-21T18:59:42.161Z,12.30
2019-02-21T19:02:12.601Z,12.10
2019-02-21T19:04:43.738Z,12.10
2019-02-21T19:07:14.156Z,12.10
2019-02-21T19:09:44.554Z,12.10
2019-02-21T19:12:16.425Z,12.20
2019-02-21T19:14:46.759Z,12.30
2019-02-21T19:17:20.516Z,12.10
2019-02-21T19:19:51.048Z,12.20
2019-02-21T19:22:21.584Z,12.20
2019-02-21T19:24:52.006Z,12.00
2019-02-21T19:27:22.317Z,11.90
2019-02-21T19:29:52.811Z,11.90
2019-02-21T19:32:23.296Z,11.80
2019-02-21T19:34:54.330Z,12.10
2019-02-21T19:37:24.787Z,12.00
2019-02-21T19:39:55.215Z,12.00
2019-02-21T19:42:31.689Z,12.00
2019-02-21T19:45:01.973Z,12.00
2019-02-21T19:47:32.394Z,12.10
2019-02-21T19:50:02.766Z,12.00
2019-02-21T19:52:33.201Z,11.90
2019-02-21T19:55:03.750Z,11.80
2019-02-21T19:57:34.589Z,11.90
2019-02-21T20:00:05.978Z,11.90
2019-02-21T20:02:36.398Z,11.90
2019-02-21T20:05:07.133Z,12.00
2019-02-21T20:07:37.526Z,12.00
2019-02-21T20:10:08.146Z,12.00
2019-02-21T20:12:38.542Z,11.90
2019-02-21T20:15:11.821Z,11.90
2019-02-21T20:17:42.398Z,11.80
2019-02-21T20:20:14.196Z,11.70
2019-02-21T20:22:44.644Z,11.80
2019-02-21T20:25:15.021Z,11.80
2019-02-21T20:27:47.998Z,11.70
2019-02-21T20:30:18.553Z,11.80
2019-02-21T20:32:51.624Z,11.90
2019-02-21T20:35:23.570Z,11.90
2019-02-21T20:37:53.966Z,12.00
2019-02-21T20:40:25.620Z,12.00
2019-02-21T20:42:56.057Z,12.00
2019-02-21T20:45:26.440Z,11.90
2019-02-21T20:47:56.798Z,11.90
2019-02-21T20:50:27.174Z,11.70
2019-02-21T20:52:57.620Z,11.80
2019-02-21T20:55:28.227Z,11.80
2019-02-21T20:57:58.938Z,11.80
2019-02-21T21:00:29.312Z,11.80
2019-02-21T21:02:59.682Z,11.90
2019-02-21T21:05:30.090Z,12.00
2019-02-21T21:08:00.497Z,12.00
2019-02-21T21:10:30.848Z,12.00
2019-02-21T21:13:01.268Z,11.90
2019-02-21T21:15:31.701Z,11.90
2019-02-21T21:18:02.138Z,12.00
2019-02-21T21:20:32.606Z,11.90
2019-02-21T21:23:05.352Z,11.90
2019-02-21T21:25:36.068Z,11.80
2019-02-21T21:28:06.454Z,11.80
2019-02-21T21:30:36.861Z,11.90
2019-02-21T21:33:08.413Z,11.90
2019-02-21T21:35:39.196Z,11.90
2019-02-21T21:38:09.602Z,11.90
2019-02-21T21:40:40.064Z,11.80
2019-02-21T21:43:10.578Z,11.90
2019-02-21T21:45:41.128Z,11.70
2019-02-21T21:48:11.552Z,11.70
2019-02-21T21:50:41.919Z,11.70
2019-02-21T21:53:12.363Z,11.70
2019-02-21T21:55:42.762Z,11.80
2019-02-21T21:58:13.430Z,11.70
2019-02-21T22:00:44.214Z,11.70
2019-02-21T22:03:14.620Z,11.50
2019-02-21T22:05:48.040Z,11.70
2019-02-21T22:08:18.717Z,11.70
2019-02-21T22:10:51.540Z,11.60
2019-02-21T22:13:21.264Z,11.60
2019-02-21T22:15:51.917Z,11.70
2019-02-21T22:18:24.023Z,11.70
2019-02-21T22:20:54.420Z,11.60
2019-02-21T22:23:24.888Z,11.60
2019-02-21T22:25:55.336Z,11.60
2019-02-21T22:28:26.437Z,11.60
2019-02-21T22:30:58.177Z,11.60
2019-02-21T22:33:28.759Z,11.60
2019-02-21T22:36:00.717Z,11.50
2019-02-21T22:38:31.205Z,11.50
2019-02-21T22:41:01.925Z,11.50
2019-02-21T22:43:32.333Z,11.60
2019-02-21T22:46:02.682Z,11.60
2019-02-21T22:48:33.067Z,11.50
2019-02-21T22:51:03.490Z,11.60
2019-02-21T22:53:33.944Z,11.50
2019-02-21T22:56:04.775Z,11.50
2019-02-21T22:58:44.780Z,11.40
2019-02-21T23:03:52.036Z,11.40
2019-02-21T23:06:53.335Z,11.40
2019-02-21T23:09:27.828Z,11.50
2019-02-21T23:11:57.731Z,11.50
2019-02-21T23:14:28.166Z,11.50
2019-02-21T23:16:58.778Z,11.60
2019-02-21T23:19:29.253Z,11.40
2019-02-21T23:21:59.911Z,11.40
2019-02-21T23:24:30.482Z,11.40
2019-02-21T23:27:01.082Z,11.30
2019-02-21T23:29:31.536Z,11.40
2019-02-21T23:32:03.319Z,11.50
2019-02-21T23:34:42.972Z,11.50
2019-02-21T23:37:13.540Z,11.60
2019-02-21T23:39:44.047Z,11.60
2019-02-21T23:42:14.676Z,11.60
2019-02-21T23:44:50.886Z,11.60
2019-02-21T23:47:21.319Z,11.50
2019-02-21T23:49:51.747Z,11.50
2019-02-21T23:52:22.273Z,11.60
2019-02-21T23:54:52.625Z,11.50
2019-02-21T23:57:24.269Z,11.50
2019-02-21T23:59:54.786Z,11.40
